createdAt,value
2023-07-06T00:02:14.835Z,19.64
2023-07-06T00:05:18.886Z,19.52
2023-07-06T00:08:22.182Z,19.39
2023-07-06T00:11:25.039Z,19.49
2023-07-06T00:14:27.479Z,19.36
2023-07-06T00:17:30.246Z,19.32
2023-07-06T00:20:33.928Z,19.19
2023-07-06T00:23:36.675Z,19.20
2023-07-06T00:26:39.384Z,19.19
2023-07-06T00:29:57.351Z,19.21
2023-07-06T00:33:01.143Z,19.05
2023-07-06T00:36:04.625Z,19.16
2023-07-06T00:39:07.826Z,19.17
2023-07-06T00:42:18.511Z,19.23
2023-07-06T00:45:20.991Z,19.02
2023-07-06T00:48:38.048Z,19.10
2023-07-06T00:51:42.126Z,19.05
2023-07-06T00:54:46.144Z,18.98
2023-07-06T00:57:53.041Z,18.98
2023-07-06T01:01:00.358Z,18.99
2023-07-06T01:04:05.528Z,19.03
2023-07-06T01:07:08.737Z,19.09
2023-07-06T01:10:11.939Z,19.19
2023-07-06T01:13:14.945Z,19.19
2023-07-06T01:16:44.964Z,19.20
2023-07-06T01:20:28.988Z,19.20
2023-07-06T01:23:55.065Z,19.19
2023-07-06T01:27:15.586Z,19.00
2023-07-06T01:30:38.122Z,19.02
2023-07-06T01:33:49.497Z,18.81
2023-07-06T01:37:01.170Z,18.87
2023-07-06T01:40:10.777Z,18.82
2023-07-06T01:43:14.669Z,18.88
2023-07-06T01:46:17.745Z,18.81
2023-07-06T01:49:21.726Z,18.80
2023-07-06T01:52:56.439Z,18.83
2023-07-06T01:56:11.557Z,18.85
2023-07-06T01:59:18.909Z,18.90
2023-07-06T02:02:22.034Z,18.91
2023-07-06T02:05:25.066Z,18.88
2023-07-06T02:08:27.956Z,18.86
2023-07-06T02:11:31.098Z,18.83
2023-07-06T02:14:33.633Z,18.81
2023-07-06T02:17:37.446Z,18.68
2023-07-06T02:20:40.528Z,18.57
2023-07-06T02:23:43.585Z,18.42
2023-07-06T02:26:47.031Z,18.30
2023-07-06T02:29:49.658Z,18.41
2023-07-06T02:32:52.486Z,18.46
2023-07-06T02:35:55.492Z,18.51
2023-07-06T02:38:58.361Z,18.55
2023-07-06T02:42:00.748Z,18.35
2023-07-06T02:45:05.332Z,18.43
2023-07-06T02:48:08.341Z,18.36
2023-07-06T02:51:10.803Z,18.51
2023-07-06T02:54:16.687Z,18.43
2023-07-06T02:57:19.346Z,18.45
2023-07-06T03:00:23.486Z,18.46
2023-07-06T03:03:27.660Z,18.50
2023-07-06T03:06:31.654Z,18.50
2023-07-06T03:09:34.360Z,18.48
2023-07-06T03:12:40.073Z,18.41
2023-07-06T03:15:43.228Z,18.40
2023-07-06T03:18:45.912Z,18.37
2023-07-06T03:21:49.110Z,18.37
2023-07-06T03:24:51.773Z,18.39
2023-07-06T03:27:54.415Z,18.41
2023-07-06T03:30:58.367Z,18.28
2023-07-06T03:34:02.185Z,18.28
2023-07-06T03:37:05.897Z,18.40
2023-07-06T03:40:12.537Z,18.17
2023-07-06T03:43:17.217Z,18.16
2023-07-06T03:46:20.701Z,18.16
2023-07-06T03:49:23.398Z,18.16
2023-07-06T03:52:25.842Z,18.29
2023-07-06T03:55:28.875Z,18.30
2023-07-06T03:58:31.404Z,18.51
2023-07-06T04:01:34.199Z,18.59
2023-07-06T04:04:37.154Z,18.58
2023-07-06T04:07:41.885Z,18.53
2023-07-06T04:10:44.572Z,18.46
2023-07-06T04:13:47.173Z,18.71
2023-07-06T04:16:49.898Z,18.65
2023-07-06T04:19:54.732Z,18.87
2023-07-06T04:22:58.856Z,18.84
2023-07-06T04:26:01.614Z,18.96
2023-07-06T04:29:05.544Z,19.13
2023-07-06T04:32:08.661Z,19.23
2023-07-06T04:35:13.312Z,19.24
2023-07-06T04:38:15.745Z,19.24
2023-07-06T04:41:18.262Z,19.37
2023-07-06T04:44:20.836Z,19.56
2023-07-06T04:47:24.729Z,19.46
2023-07-06T04:50:28.315Z,19.65
2023-07-06T04:53:33.910Z,19.68
2023-07-06T04:56:39.128Z,19.77
2023-07-06T04:59:42.076Z,19.82
2023-07-06T05:02:47.253Z,19.85
2023-07-06T05:05:50.060Z,20.03
2023-07-06T05:08:53.886Z,20.13
2023-07-06T05:11:57.361Z,20.17
2023-07-06T05:14:59.885Z,20.31
2023-07-06T05:18:02.998Z,20.34
2023-07-06T05:21:06.196Z,20.41
2023-07-06T05:24:09.528Z,20.63
2023-07-06T05:27:12.343Z,20.74
2023-07-06T05:30:15.272Z,20.97
2023-07-06T05:33:19.130Z,21.19
2023-07-06T05:36:21.862Z,21.29
2023-07-06T05:39:24.302Z,21.38
2023-07-06T05:42:27.045Z,21.52
2023-07-06T05:45:29.479Z,21.56
2023-07-06T05:48:34.278Z,21.64
2023-07-06T05:51:36.873Z,21.89
2023-07-06T05:54:40.542Z,21.99
2023-07-06T05:57:45.228Z,22.05
2023-07-06T06:00:47.881Z,22.19
2023-07-06T06:03:50.428Z,22.47
2023-07-06T06:06:55.389Z,22.76
2023-07-06T06:09:58.855Z,22.74
2023-07-06T06:13:01.515Z,22.93
2023-07-06T06:16:04.483Z,23.22
2023-07-06T06:19:07.768Z,23.38
2023-07-06T06:22:10.609Z,23.61
2023-07-06T06:25:13.076Z,23.73
2023-07-06T06:28:17.478Z,24.11
2023-07-06T06:31:20.959Z,24.35
2023-07-06T06:34:24.325Z,24.61
2023-07-06T06:37:28.635Z,25.09
2023-07-06T06:40:32.349Z,25.45
2023-07-06T06:43:39.664Z,25.89
2023-07-06T06:46:42.449Z,26.16
2023-07-06T06:49:45.119Z,26.30
2023-07-06T06:52:49.357Z,26.39
2023-07-06T06:55:51.808Z,26.32
2023-07-06T06:58:54.714Z,26.31
2023-07-06T07:02:04.109Z,26.73
2023-07-06T07:05:08.320Z,27.66
2023-07-06T07:08:10.918Z,28.36
2023-07-06T07:11:22.995Z,28.94
2023-07-06T07:14:26.754Z,29.51
2023-07-06T07:17:29.848Z,29.64
2023-07-06T07:20:32.459Z,29.35
2023-07-06T07:23:44.310Z,29.05
2023-07-06T07:26:50.141Z,29.65
2023-07-06T07:29:54.715Z,30.31
2023-07-06T07:32:59.009Z,29.96
2023-07-06T07:36:04.243Z,29.73
2023-07-06T07:39:06.849Z,29.75
2023-07-06T07:42:09.323Z,30.76
2023-07-06T07:45:11.997Z,31.15
2023-07-06T07:48:14.400Z,31.37
2023-07-06T07:51:20.254Z,31.88
2023-07-06T07:54:23.884Z,32.18
2023-07-06T07:57:26.601Z,32.11
2023-07-06T08:00:30.652Z,32.20
2023-07-06T08:03:34.365Z,32.35
2023-07-06T08:06:39.598Z,32.30
2023-07-06T08:09:42.421Z,32.21
2023-07-06T08:12:45.575Z,32.40
2023-07-06T08:15:50.094Z,32.79
2023-07-06T08:19:00.365Z,32.30
2023-07-06T08:22:15.886Z,32.07
2023-07-06T08:25:18.438Z,32.84
2023-07-06T08:28:23.910Z,32.46
2023-07-06T08:31:28.152Z,31.85
2023-07-06T08:34:30.848Z,31.49
2023-07-06T08:37:33.983Z,32.50
2023-07-06T08:40:36.901Z,32.82
2023-07-06T08:43:41.032Z,32.78
2023-07-06T08:46:55.280Z,32.53
2023-07-06T08:49:58.491Z,31.35
2023-07-06T08:53:01.734Z,32.54
2023-07-06T08:56:10.731Z,31.99
2023-07-06T08:59:20.263Z,32.63
2023-07-06T09:02:27.790Z,32.26
2023-07-06T09:05:33.767Z,30.70
2023-07-06T09:08:36.538Z,31.57
2023-07-06T09:11:40.247Z,32.03
2023-07-06T09:14:43.895Z,31.23
2023-07-06T09:17:50.615Z,30.92
2023-07-06T09:20:54.699Z,28.75
2023-07-06T09:23:58.307Z,28.67
2023-07-06T09:27:09.586Z,27.11
2023-07-06T09:30:31.107Z,25.45
2023-07-06T09:33:34.526Z,24.71
2023-07-06T09:36:37.591Z,24.04
2023-07-06T09:39:41.371Z,23.53
2023-07-06T09:42:45.764Z,23.03
2023-07-06T09:45:50.771Z,23.04
2023-07-06T09:48:53.668Z,22.77
2023-07-06T09:52:06.298Z,22.93
2023-07-06T09:55:24.771Z,22.38
2023-07-06T09:58:28.606Z,21.52
2023-07-06T10:01:36.649Z,20.70
2023-07-06T10:04:39.793Z,20.94
2023-07-06T10:08:07.397Z,20.83
2023-07-06T10:11:13.690Z,20.41
2023-07-06T10:14:45.152Z,19.99
2023-07-06T10:17:59.584Z,20.38
2023-07-06T10:21:25.899Z,20.76
2023-07-06T10:24:52.933Z,20.82
2023-07-06T10:28:05.476Z,21.18
2023-07-06T10:31:11.468Z,21.51
2023-07-06T10:34:25.904Z,21.76
2023-07-06T10:37:29.337Z,21.37
2023-07-06T10:40:31.790Z,21.70
2023-07-06T10:43:34.466Z,21.41
2023-07-06T10:46:37.712Z,21.18
2023-07-06T10:50:20.498Z,21.54
2023-07-06T10:54:07.855Z,21.41
2023-07-06T10:57:11.847Z,21.45
2023-07-06T11:00:20.383Z,21.08
2023-07-06T11:03:28.526Z,20.70
2023-07-06T11:06:43.571Z,20.47
2023-07-06T11:10:26.151Z,20.61
2023-07-06T11:13:28.622Z,20.80
2023-07-06T11:16:59.041Z,20.72
2023-07-06T11:20:18.446Z,20.96
2023-07-06T11:23:33.756Z,20.89
2023-07-06T11:26:54.596Z,20.89
2023-07-06T11:30:15.294Z,20.98
2023-07-06T11:33:29.891Z,21.01
2023-07-06T11:36:44.218Z,21.19
2023-07-06T11:39:46.614Z,21.34
2023-07-06T11:43:05.191Z,21.39
2023-07-06T11:46:35.739Z,21.40
2023-07-06T11:49:45.982Z,21.52
2023-07-06T11:53:09.631Z,21.45
2023-07-06T11:56:33.764Z,21.30
2023-07-06T11:59:38.513Z,21.81
2023-07-06T12:02:42.224Z,22.00
2023-07-06T12:05:52.283Z,22.20
2023-07-06T12:09:00.566Z,21.97
2023-07-06T12:12:07.711Z,22.04
2023-07-06T12:15:13.706Z,22.20
2023-07-06T12:18:17.098Z,22.32
2023-07-06T12:21:36.622Z,22.35
2023-07-06T12:24:39.448Z,22.75
2023-07-06T12:27:43.078Z,23.05
2023-07-06T12:30:50.350Z,22.72
2023-07-06T12:33:58.073Z,23.14
2023-07-06T12:37:04.043Z,23.90
2023-07-06T12:40:07.300Z,24.49
2023-07-06T12:43:35.850Z,24.47
2023-07-06T12:46:38.480Z,24.47
2023-07-06T12:49:57.093Z,24.21
2023-07-06T12:53:25.551Z,24.16
2023-07-06T12:56:33.043Z,24.66
2023-07-06T12:59:37.743Z,25.01
2023-07-06T13:02:42.371Z,25.18
2023-07-06T13:05:55.727Z,25.35
2023-07-06T13:09:01.347Z,25.64
2023-07-06T13:12:11.002Z,25.86
2023-07-06T13:15:19.414Z,26.19
2023-07-06T13:18:22.230Z,25.96
2023-07-06T13:21:28.237Z,25.48
2023-07-06T13:24:33.558Z,25.96
2023-07-06T13:27:37.133Z,26.04
2023-07-06T13:30:41.766Z,26.39
2023-07-06T13:33:44.438Z,26.20
2023-07-06T13:36:46.900Z,26.13
2023-07-06T13:39:50.457Z,26.44
2023-07-06T13:42:53.500Z,26.71
2023-07-06T13:45:57.911Z,26.71
2023-07-06T13:49:01.651Z,27.00
2023-07-06T13:52:04.584Z,27.05
2023-07-06T13:55:19.693Z,26.63
2023-07-06T13:58:25.664Z,27.07
2023-07-06T14:01:28.623Z,27.10
2023-07-06T14:04:32.002Z,27.16
2023-07-06T14:07:34.578Z,26.94
2023-07-06T14:10:38.391Z,27.37
2023-07-06T14:13:44.769Z,27.05
2023-07-06T14:16:48.977Z,27.35
2023-07-06T14:20:02.611Z,27.44
2023-07-06T14:23:16.566Z,27.10
2023-07-06T14:26:19.465Z,26.99
2023-07-06T14:29:22.228Z,27.02
2023-07-06T14:32:24.678Z,27.00
2023-07-06T14:35:27.602Z,26.84
2023-07-06T14:38:30.026Z,26.06
2023-07-06T14:41:32.575Z,25.34
2023-07-06T14:44:36.461Z,24.84
2023-07-06T14:47:39.021Z,24.76
2023-07-06T14:50:42.152Z,25.10
2023-07-06T14:53:44.702Z,25.83
2023-07-06T14:56:47.257Z,26.06
2023-07-06T14:59:49.959Z,26.30
2023-07-06T15:02:52.702Z,26.04
2023-07-06T15:06:02.180Z,26.08
2023-07-06T15:09:04.708Z,25.96
2023-07-06T15:12:08.567Z,26.07
2023-07-06T15:15:12.179Z,26.17
2023-07-06T15:18:15.057Z,25.76
2023-07-06T15:21:19.876Z,26.08
2023-07-06T15:24:22.404Z,25.94
2023-07-06T15:27:24.922Z,26.04
2023-07-06T15:30:27.738Z,26.05
2023-07-06T15:33:30.719Z,25.97
2023-07-06T15:36:33.767Z,25.99
2023-07-06T15:39:36.872Z,26.03
2023-07-06T15:42:39.590Z,26.05
2023-07-06T15:45:43.413Z,25.93
2023-07-06T15:48:49.659Z,25.95
2023-07-06T15:51:52.427Z,25.62
2023-07-06T15:54:54.895Z,25.52
2023-07-06T15:58:02.076Z,25.30
2023-07-06T16:01:06.023Z,25.35
2023-07-06T16:04:09.177Z,25.44
2023-07-06T16:07:12.811Z,25.53
2023-07-06T16:10:15.552Z,25.30
2023-07-06T16:13:18.986Z,25.25
2023-07-06T16:16:22.141Z,25.38
2023-07-06T16:19:24.717Z,25.24
2023-07-06T16:22:27.175Z,25.16
2023-07-06T16:25:30.993Z,25.08
2023-07-06T16:28:33.721Z,24.95
2023-07-06T16:31:37.731Z,24.92
2023-07-06T16:34:40.238Z,24.99
2023-07-06T16:37:43.141Z,25.07
2023-07-06T16:40:45.642Z,25.08
2023-07-06T16:43:48.656Z,25.05
2023-07-06T16:46:51.356Z,24.92
2023-07-06T16:49:54.194Z,24.80
2023-07-06T16:52:56.764Z,24.69
2023-07-06T16:56:00.004Z,24.48
2023-07-06T16:59:02.899Z,24.38
2023-07-06T17:02:06.798Z,24.46
2023-07-06T17:05:09.465Z,24.51
2023-07-06T17:08:12.325Z,24.43
2023-07-06T17:11:14.824Z,24.49
2023-07-06T17:14:18.451Z,24.38
2023-07-06T17:17:23.043Z,24.22
2023-07-06T17:20:26.108Z,24.38
2023-07-06T17:23:30.429Z,24.31
2023-07-06T17:26:32.947Z,24.25
2023-07-06T17:29:36.665Z,24.18
2023-07-06T17:32:39.808Z,24.08
2023-07-06T17:35:44.303Z,23.75
2023-07-06T17:38:46.824Z,23.62
2023-07-06T17:41:49.357Z,23.65
2023-07-06T17:44:51.986Z,23.61
2023-07-06T17:47:54.962Z,23.41
2023-07-06T17:51:02.530Z,23.38
2023-07-06T17:54:05.362Z,23.36
2023-07-06T17:57:07.837Z,23.11
2023-07-06T18:00:10.756Z,23.13
2023-07-06T18:03:16.427Z,22.92
2023-07-06T18:06:19.003Z,22.69
2023-07-06T18:09:21.627Z,22.64
2023-07-06T18:12:24.132Z,22.57
2023-07-06T18:15:27.630Z,22.59
2023-07-06T18:18:30.206Z,22.56
2023-07-06T18:21:32.738Z,22.40
2023-07-06T18:24:35.434Z,22.29
2023-07-06T18:27:38.603Z,22.24
2023-07-06T18:30:41.259Z,22.17
2023-07-06T18:33:44.051Z,21.99
2023-07-06T18:36:46.563Z,21.76
2023-07-06T18:42:54.127Z,21.70
2023-07-06T18:46:00.896Z,21.56
2023-07-06T18:49:04.948Z,21.43
2023-07-06T18:52:07.736Z,21.43
2023-07-06T18:55:10.379Z,21.15
2023-07-06T18:58:13.146Z,21.20
2023-07-06T19:01:15.986Z,21.08
2023-07-06T19:04:18.615Z,21.02
2023-07-06T19:07:21.143Z,21.04
2023-07-06T19:10:23.902Z,21.09
2023-07-06T19:13:26.354Z,21.16
2023-07-06T19:16:29.486Z,21.05
2023-07-06T19:19:32.493Z,21.06
2023-07-06T19:22:50.403Z,21.01
2023-07-06T19:25:53.121Z,20.81
2023-07-06T19:28:55.568Z,20.68
2023-07-06T19:32:11.737Z,20.61
2023-07-06T19:35:19.605Z,20.61
2023-07-06T19:38:22.306Z,20.42
2023-07-06T19:41:24.897Z,20.31
2023-07-06T19:44:27.416Z,20.33
2023-07-06T19:47:30.129Z,20.34
2023-07-06T19:50:34.386Z,20.26
2023-07-06T19:53:37.031Z,20.24
2023-07-06T19:56:39.777Z,20.13
2023-07-06T19:59:42.499Z,20.07
2023-07-06T20:02:45.549Z,20.04
2023-07-06T20:05:48.533Z,19.84
2023-07-06T20:08:50.997Z,19.72
2023-07-06T20:11:53.778Z,19.75
2023-07-06T20:14:57.188Z,19.58
2023-07-06T20:18:00.541Z,19.59
2023-07-06T20:21:03.421Z,19.65
2023-07-06T20:24:06.085Z,19.58
2023-07-06T20:27:08.665Z,19.47
2023-07-06T20:30:11.906Z,19.54
2023-07-06T20:33:16.359Z,19.44
2023-07-06T20:36:19.024Z,19.40
2023-07-06T20:39:21.838Z,19.46
2023-07-06T20:42:24.593Z,19.42
2023-07-06T20:45:27.570Z,19.48
2023-07-06T20:48:30.310Z,19.43
2023-07-06T20:51:33.014Z,19.31
2023-07-06T20:54:35.525Z,19.23
2023-07-06T20:57:38.290Z,19.11
2023-07-06T21:00:41.856Z,19.24
2023-07-06T21:03:44.848Z,19.10
2023-07-06T21:06:47.902Z,19.00
2023-07-06T21:09:50.372Z,18.96
2023-07-06T21:12:53.051Z,18.92
2023-07-06T21:15:56.586Z,18.67
2023-07-06T21:18:59.880Z,18.78
2023-07-06T21:22:02.557Z,18.66
2023-07-06T21:25:06.018Z,18.63
2023-07-06T21:28:13.186Z,18.63
2023-07-06T21:31:15.977Z,18.70
2023-07-06T21:34:20.047Z,18.51
2023-07-06T21:37:22.718Z,18.61
2023-07-06T21:40:25.140Z,18.48
2023-07-06T21:43:28.065Z,18.51
2023-07-06T21:46:30.775Z,18.57
2023-07-06T21:49:33.584Z,18.57
2023-07-06T21:52:36.281Z,18.42
2023-07-06T21:55:40.999Z,18.48
2023-07-06T21:58:43.819Z,18.22
2023-07-06T22:01:46.456Z,18.23
2023-07-06T22:04:50.646Z,18.31
2023-07-06T22:07:53.349Z,18.20
2023-07-06T22:10:57.094Z,18.07
2023-07-06T22:14:00.376Z,18.01
2023-07-06T22:17:02.952Z,18.02
2023-07-06T22:20:06.221Z,17.87
2023-07-06T22:23:08.919Z,17.72
2023-07-06T22:26:12.495Z,17.64
2023-07-06T22:29:15.344Z,17.56
2023-07-06T22:32:17.911Z,17.68
2023-07-06T22:35:22.548Z,17.57
2023-07-06T22:38:26.805Z,17.43
2023-07-06T22:41:31.056Z,17.54
2023-07-06T22:44:33.716Z,17.46
2023-07-06T22:47:36.355Z,17.52
2023-07-06T22:50:38.908Z,17.43
2023-07-06T22:53:41.640Z,17.39
2023-07-06T22:56:44.139Z,17.42
2023-07-06T22:59:46.884Z,17.51
2023-07-06T23:02:49.644Z,17.30
2023-07-06T23:06:03.265Z,17.45
2023-07-06T23:09:08.169Z,17.45
2023-07-06T23:12:10.699Z,17.43
2023-07-06T23:15:13.478Z,17.24
2023-07-06T23:18:15.952Z,17.35
2023-07-06T23:21:18.907Z,17.42
2023-07-06T23:24:21.443Z,17.38
2023-07-06T23:27:23.911Z,17.46
2023-07-06T23:30:26.513Z,17.35
2023-07-06T23:33:30.937Z,17.21
2023-07-06T23:36:33.485Z,17.19
2023-07-06T23:39:37.543Z,17.31
2023-07-06T23:42:40.340Z,17.28
2023-07-06T23:45:43.438Z,17.32
2023-07-06T23:48:50.248Z,17.23
2023-07-06T23:51:53.062Z,17.19
2023-07-06T23:54:55.795Z,17.21
2023-07-06T23:57:58.515Z,17.31
